createdAt,value
2023-05-08T00:01:33.822Z,6.57
2023-05-08T00:04:02.900Z,6.95
2023-05-08T00:06:31.101Z,8.35
2023-05-08T00:08:57.888Z,6.47
2023-05-08T00:11:28.824Z,6.28
2023-05-08T00:13:57.198Z,7.20
2023-05-08T00:16:24.153Z,6.13
2023-05-08T00:18:50.941Z,6.78
2023-05-08T00:21:18.751Z,7.05
2023-05-08T00:23:45.557Z,7.20
2023-05-08T00:26:12.292Z,7.25
2023-05-08T00:28:39.136Z,7.28
2023-05-08T00:31:06.793Z,7.25
2023-05-08T00:33:34.491Z,8.05
2023-05-08T00:36:03.742Z,8.73
2023-05-08T00:38:32.717Z,8.80
2023-05-08T00:41:03.444Z,8.45
2023-05-08T00:43:30.096Z,7.72
2023-05-08T00:45:59.608Z,8.85
2023-05-08T00:48:36.456Z,7.65
2023-05-08T00:51:08.499Z,8.65
2023-05-08T00:53:42.980Z,8.88
2023-05-08T00:56:19.513Z,7.75
2023-05-08T00:58:49.281Z,8.30
2023-05-08T01:01:16.305Z,8.38
2023-05-08T01:03:44.697Z,7.97
2023-05-08T01:06:12.095Z,7.93
2023-05-08T01:08:41.144Z,8.52
2023-05-08T01:11:23.577Z,8.18
2023-05-08T01:13:57.951Z,8.75
2023-05-08T01:16:51.913Z,9.10
2023-05-08T01:19:37.617Z,9.10
2023-05-08T01:22:04.332Z,8.50
2023-05-08T01:24:51.902Z,9.18
2023-05-08T01:27:40.872Z,9.50
2023-05-08T01:30:45.851Z,9.00
2023-05-08T01:33:46.217Z,9.75
2023-05-08T01:36:31.410Z,8.70
2023-05-08T01:39:19.374Z,7.85
2023-05-08T01:42:05.973Z,8.48
2023-05-08T01:44:38.056Z,7.55
2023-05-08T01:47:10.090Z,8.95
2023-05-08T01:49:49.330Z,8.82
2023-05-08T01:52:21.505Z,8.50
2023-05-08T01:55:24.741Z,8.48
2023-05-08T01:57:55.065Z,8.80
2023-05-08T02:00:24.082Z,8.93
2023-05-08T02:02:52.712Z,8.93
2023-05-08T02:05:22.830Z,9.80
2023-05-08T02:07:51.957Z,9.25
2023-05-08T02:10:20.418Z,8.65
2023-05-08T02:12:48.873Z,8.30
2023-05-08T02:15:17.519Z,8.45
2023-05-08T02:17:51.608Z,9.32
2023-05-08T02:20:20.235Z,9.63
2023-05-08T02:22:51.677Z,9.02
2023-05-08T02:25:19.967Z,9.02
2023-05-08T02:27:58.846Z,8.15
2023-05-08T02:30:26.704Z,8.35
2023-05-08T02:32:59.739Z,9.45
2023-05-08T02:35:31.077Z,8.82
2023-05-08T02:37:59.694Z,8.70
2023-05-08T02:40:29.388Z,8.70
2023-05-08T02:42:56.814Z,8.70
2023-05-08T02:45:32.718Z,10.18
2023-05-08T02:48:20.492Z,9.90
2023-05-08T02:51:21.511Z,9.60
2023-05-08T02:53:56.875Z,8.82
2023-05-08T02:57:01.096Z,8.38
2023-05-08T02:59:36.905Z,8.43
2023-05-08T03:02:16.382Z,9.15
2023-05-08T03:04:52.350Z,8.52
2023-05-08T03:07:23.108Z,9.45
2023-05-08T03:09:59.081Z,8.35
2023-05-08T03:12:29.200Z,9.48
2023-05-08T03:15:36.770Z,9.63
2023-05-08T03:18:08.319Z,10.05
2023-05-08T03:20:40.020Z,11.45
2023-05-08T03:23:11.080Z,12.40
2023-05-08T03:25:40.152Z,12.75
2023-05-08T03:28:07.674Z,12.50
2023-05-08T03:30:37.343Z,13.80
2023-05-08T03:33:05.744Z,15.38
2023-05-08T03:35:35.158Z,15.63
2023-05-08T03:38:02.754Z,16.25
2023-05-08T03:40:29.626Z,16.42
2023-05-08T03:42:56.696Z,16.67
2023-05-08T03:45:26.956Z,17.33
2023-05-08T03:47:54.218Z,18.45
2023-05-08T03:50:22.981Z,18.13
2023-05-08T03:52:50.556Z,18.40
2023-05-08T03:55:19.811Z,18.60
2023-05-08T03:57:57.245Z,18.88
2023-05-08T04:00:37.616Z,17.38
2023-05-08T04:06:12.825Z,16.52
2023-05-08T04:08:45.696Z,18.48
2023-05-08T04:11:23.481Z,17.08
2023-05-08T04:13:57.782Z,18.52
2023-05-08T04:19:07.690Z,16.65
2023-05-08T04:21:36.548Z,16.80
2023-05-08T04:24:10.911Z,15.32
2023-05-08T04:26:41.959Z,14.50
2023-05-08T04:29:09.786Z,15.00
2023-05-08T04:31:38.528Z,14.18
2023-05-08T04:34:06.600Z,14.30
2023-05-08T04:36:34.032Z,14.35
2023-05-08T04:39:00.938Z,15.80
2023-05-08T04:41:27.610Z,14.82
2023-05-08T04:43:54.755Z,15.93
2023-05-08T04:46:21.566Z,15.57
2023-05-08T04:48:49.571Z,13.77
2023-05-08T04:51:21.735Z,14.82
2023-05-08T04:53:48.630Z,14.50
2023-05-08T04:56:15.531Z,13.60
2023-05-08T04:58:43.253Z,13.88
2023-05-08T05:01:10.312Z,13.25
2023-05-08T05:03:37.322Z,14.48
2023-05-08T05:06:04.994Z,14.20
2023-05-08T05:08:32.366Z,14.07
2023-05-08T05:10:59.210Z,13.38
2023-05-08T05:13:27.102Z,14.38
2023-05-08T05:18:25.577Z,12.43
2023-05-08T05:20:53.630Z,15.07
2023-05-08T05:23:20.898Z,13.93
2023-05-08T05:25:51.835Z,13.68
2023-05-08T05:28:45.800Z,13.18
2023-05-08T05:31:15.815Z,14.18
2023-05-08T05:33:43.025Z,14.35
2023-05-08T05:36:09.657Z,14.00
2023-05-08T05:38:37.374Z,13.75
2023-05-08T05:41:07.725Z,14.50
2023-05-08T05:43:34.395Z,14.10
2023-05-08T05:46:08.326Z,14.68
2023-05-08T05:48:36.453Z,13.95
2023-05-08T05:51:05.963Z,14.82
2023-05-08T05:53:32.534Z,14.77
2023-05-08T05:55:59.634Z,15.32
2023-05-08T05:58:26.492Z,16.30
2023-05-08T06:00:53.341Z,15.55
2023-05-08T06:03:21.842Z,15.95
2023-05-08T06:05:48.759Z,17.85
2023-05-08T06:08:18.113Z,15.82
2023-05-08T06:10:44.935Z,15.85
2023-05-08T06:13:11.884Z,16.50
2023-05-08T06:15:38.656Z,17.42
2023-05-08T06:18:06.305Z,16.45
2023-05-08T06:20:33.050Z,16.58
2023-05-08T06:22:59.804Z,16.15
2023-05-08T06:25:28.159Z,17.52
2023-05-08T06:27:55.220Z,17.67
2023-05-08T06:30:21.938Z,16.67
2023-05-08T06:32:48.663Z,17.67
2023-05-08T06:35:19.274Z,17.08
2023-05-08T06:37:49.171Z,17.02
2023-05-08T06:40:23.945Z,16.98
2023-05-08T06:42:50.761Z,18.10
2023-05-08T06:45:17.497Z,18.45
2023-05-08T06:47:44.217Z,16.23
2023-05-08T06:50:12.305Z,16.88
2023-05-08T06:55:06.463Z,17.00
2023-05-08T06:57:33.378Z,17.27
2023-05-08T07:00:00.403Z,18.38
2023-05-08T07:02:30.461Z,18.52
2023-05-08T07:04:57.336Z,18.73
2023-05-08T07:07:24.145Z,15.98
2023-05-08T07:09:50.838Z,18.83
2023-05-08T07:12:17.515Z,17.48
2023-05-08T07:14:44.260Z,18.13
2023-05-08T07:17:12.231Z,18.60
2023-05-08T07:19:39.073Z,18.08
2023-05-08T07:22:06.546Z,19.05
2023-05-08T07:24:33.360Z,16.73
2023-05-08T07:27:00.276Z,16.73
2023-05-08T07:29:30.321Z,17.63
2023-05-08T07:31:59.437Z,18.70
2023-05-08T07:34:26.228Z,17.85
2023-05-08T07:36:52.970Z,17.85
2023-05-08T07:39:21.065Z,18.58
2023-05-08T07:44:16.941Z,18.40
2023-05-08T07:46:44.061Z,18.35
2023-05-08T07:49:13.257Z,16.60
2023-05-08T07:51:41.387Z,16.95
2023-05-08T07:54:08.555Z,18.25
2023-05-08T07:56:35.429Z,18.30
2023-05-08T07:59:02.071Z,18.33
2023-05-08T08:01:33.954Z,17.67
2023-05-08T08:04:01.049Z,18.63
2023-05-08T08:06:29.921Z,16.60
2023-05-08T08:08:56.504Z,18.05
2023-05-08T08:11:23.765Z,18.10
2023-05-08T08:13:50.623Z,19.35
2023-05-08T08:16:17.170Z,18.33
2023-05-08T08:18:43.864Z,19.48
2023-05-08T08:21:14.409Z,19.40
2023-05-08T08:23:43.379Z,17.25
2023-05-08T08:26:10.481Z,17.50
2023-05-08T08:28:37.907Z,19.00
2023-05-08T08:31:07.002Z,19.73
2023-05-08T08:33:33.834Z,19.08
2023-05-08T08:36:00.448Z,20.30
2023-05-08T08:38:27.414Z,21.15
2023-05-08T08:40:55.098Z,20.00
2023-05-08T08:43:22.303Z,19.85
2023-05-08T08:45:49.037Z,19.35
2023-05-08T08:48:17.752Z,18.55
2023-05-08T08:50:47.539Z,19.08
2023-05-08T08:53:19.468Z,18.90
2023-05-08T08:55:47.373Z,19.20
2023-05-08T09:01:04.286Z,18.40
2023-05-08T09:03:32.357Z,21.17
2023-05-08T09:06:04.645Z,20.73
2023-05-08T09:08:34.692Z,19.92
2023-05-08T09:11:03.708Z,21.35
2023-05-08T09:13:31.069Z,20.58
2023-05-08T09:15:59.929Z,23.10
2023-05-08T09:18:29.492Z,21.90
2023-05-08T09:20:57.123Z,22.65
2023-05-08T09:23:24.228Z,23.52
2023-05-08T09:25:51.014Z,24.55
2023-05-08T09:28:19.495Z,25.65
2023-05-08T09:30:56.285Z,25.73
2023-05-08T09:33:29.065Z,26.30
2023-05-08T09:35:57.066Z,28.55
2023-05-08T09:41:15.986Z,25.75
2023-05-08T09:43:45.023Z,27.98
2023-05-08T09:46:24.535Z,28.15
2023-05-08T09:48:54.057Z,26.15
2023-05-08T09:51:22.274Z,25.80
2023-05-08T09:53:53.480Z,26.55
2023-05-08T09:56:47.535Z,29.42
2023-05-08T09:59:30.857Z,27.90
2023-05-08T10:01:59.617Z,28.40
2023-05-08T10:04:37.995Z,30.55
2023-05-08T10:07:07.584Z,31.30
2023-05-08T10:09:46.829Z,31.80
2023-05-08T10:12:17.180Z,37.45
2023-05-08T10:14:46.488Z,38.30
2023-05-08T10:17:22.235Z,41.10
2023-05-08T10:19:55.102Z,42.72
2023-05-08T10:22:25.153Z,40.42
2023-05-08T10:24:57.847Z,39.35
2023-05-08T10:27:33.633Z,43.58
2023-05-08T10:30:04.652Z,45.40
2023-05-08T10:32:40.744Z,45.78
2023-05-08T10:35:10.957Z,49.13
2023-05-08T10:37:39.528Z,46.75
2023-05-08T10:40:07.256Z,51.05
2023-05-08T10:45:06.137Z,53.85
2023-05-08T10:47:46.292Z,49.60
2023-05-08T10:50:16.430Z,50.58
2023-05-08T10:53:14.291Z,46.97
2023-05-08T10:55:44.637Z,46.20
2023-05-08T10:58:30.300Z,50.63
2023-05-08T11:01:00.182Z,49.42
2023-05-08T11:03:32.786Z,49.03
2023-05-08T11:06:02.129Z,48.13
2023-05-08T11:08:31.742Z,47.88
2023-05-08T11:11:02.127Z,44.25
2023-05-08T11:13:41.848Z,47.35
2023-05-08T11:16:13.128Z,42.22
2023-05-08T11:19:18.569Z,45.20
2023-05-08T11:22:16.820Z,42.88
2023-05-08T11:25:01.812Z,41.03
2023-05-08T11:27:35.946Z,40.67
2023-05-08T11:33:19.364Z,41.88
2023-05-08T11:35:58.236Z,42.47
2023-05-08T11:38:38.717Z,42.03
2023-05-08T11:41:08.783Z,44.42
2023-05-08T11:43:37.494Z,44.35
2023-05-08T11:46:14.748Z,40.25
2023-05-08T11:48:42.081Z,37.83
2023-05-08T11:51:09.781Z,36.53
2023-05-08T11:56:10.838Z,31.13
2023-05-08T11:58:42.469Z,31.38
2023-05-08T12:01:09.226Z,35.42
2023-05-08T12:03:36.059Z,33.90
2023-05-08T12:06:03.572Z,32.90
2023-05-08T12:08:30.582Z,38.17
2023-05-08T12:10:58.228Z,35.53
2023-05-08T12:13:27.344Z,37.38
2023-05-08T12:15:59.769Z,36.80
2023-05-08T12:18:31.993Z,37.15
2023-05-08T12:21:01.353Z,36.83
2023-05-08T12:23:34.178Z,42.20
2023-05-08T12:26:02.261Z,37.22
2023-05-08T12:28:29.539Z,40.65
2023-05-08T12:30:56.530Z,41.30
2023-05-08T12:33:24.045Z,42.10
2023-05-08T12:35:50.957Z,40.05
2023-05-08T12:38:17.747Z,37.92
2023-05-08T12:40:46.706Z,33.83
2023-05-08T12:43:13.759Z,33.42
2023-05-08T12:45:42.347Z,35.38
2023-05-08T12:48:16.106Z,32.55
2023-05-08T12:50:46.320Z,32.78
2023-05-08T12:55:57.832Z,29.90
2023-05-08T12:58:27.921Z,28.90
2023-05-08T13:01:05.022Z,29.25
2023-05-08T13:03:33.576Z,31.30
2023-05-08T13:06:00.497Z,31.70
2023-05-08T13:08:32.267Z,29.52
2023-05-08T13:11:01.267Z,31.20
2023-05-08T13:13:31.786Z,32.83
2023-05-08T13:16:02.417Z,32.47
2023-05-08T13:18:33.790Z,33.70
2023-05-08T13:21:02.382Z,34.05
2023-05-08T13:23:31.052Z,32.47
2023-05-08T13:26:00.846Z,30.15
2023-05-08T13:28:32.408Z,31.13
2023-05-08T13:31:02.256Z,30.95
2023-05-08T13:33:29.001Z,28.80
2023-05-08T13:35:56.840Z,29.38
2023-05-08T13:38:27.661Z,27.88
2023-05-08T13:40:54.917Z,26.10
2023-05-08T13:43:22.995Z,24.08
2023-05-08T13:45:49.861Z,26.83
2023-05-08T13:48:20.588Z,23.05
2023-05-08T13:50:47.603Z,23.63
2023-05-08T13:53:14.590Z,25.23
2023-05-08T13:55:43.724Z,24.92
2023-05-08T13:58:10.526Z,21.83
2023-05-08T14:00:37.281Z,22.23
2023-05-08T14:03:05.046Z,23.00
2023-05-08T14:05:32.263Z,21.00
2023-05-08T14:08:01.716Z,22.38
2023-05-08T14:10:33.736Z,20.95
2023-05-08T14:13:00.440Z,20.60
2023-05-08T14:15:34.814Z,22.27
2023-05-08T14:18:04.442Z,20.42
2023-05-08T14:20:31.474Z,20.85
2023-05-08T14:23:00.048Z,21.02
2023-05-08T14:25:27.487Z,17.02
2023-05-08T14:27:54.386Z,18.23
2023-05-08T14:30:21.171Z,21.00
2023-05-08T14:32:50.282Z,16.42
2023-05-08T14:35:18.528Z,12.63
2023-05-08T14:37:45.625Z,11.57
2023-05-08T14:40:13.186Z,12.32
2023-05-08T14:42:41.293Z,12.95
2023-05-08T14:45:13.030Z,13.48
2023-05-08T14:47:40.477Z,15.27
2023-05-08T14:50:07.758Z,14.93
2023-05-08T14:52:34.730Z,15.25
2023-05-08T14:55:02.157Z,13.13
2023-05-08T14:57:29.432Z,15.02
2023-05-08T14:59:57.595Z,13.75
2023-05-08T15:02:24.356Z,12.85
2023-05-08T15:04:51.312Z,14.25
2023-05-08T15:07:19.376Z,15.10
2023-05-08T15:09:49.226Z,14.80
2023-05-08T15:12:16.247Z,13.73
2023-05-08T15:14:45.983Z,14.85
2023-05-08T15:17:15.554Z,16.08
2023-05-08T15:19:42.916Z,13.75
2023-05-08T15:22:10.650Z,15.45
2023-05-08T15:27:04.633Z,13.13
2023-05-08T15:29:32.729Z,15.07
2023-05-08T15:31:59.364Z,17.50
2023-05-08T15:34:29.099Z,20.83
2023-05-08T15:36:59.174Z,20.63
2023-05-08T15:39:26.172Z,21.75
2023-05-08T15:41:52.697Z,19.75
2023-05-08T15:44:19.817Z,21.50
2023-05-08T15:46:46.664Z,21.48
2023-05-08T15:49:13.317Z,24.75
2023-05-08T15:51:40.376Z,24.05
2023-05-08T15:54:07.421Z,24.00
2023-05-08T15:56:37.341Z,25.88
2023-05-08T15:59:04.309Z,24.73
2023-05-08T16:01:31.141Z,24.50
2023-05-08T16:03:58.257Z,23.88
2023-05-08T16:06:24.938Z,24.95
2023-05-08T16:08:51.963Z,25.13
2023-05-08T16:11:20.027Z,23.05
2023-05-08T16:13:48.219Z,23.80
2023-05-08T16:16:14.934Z,24.58
2023-05-08T16:18:41.868Z,22.70
2023-05-08T16:21:10.308Z,22.90
2023-05-08T16:23:37.671Z,21.73
2023-05-08T16:26:05.081Z,23.05
2023-05-08T16:28:31.925Z,22.55
2023-05-08T16:30:59.266Z,22.83
2023-05-08T16:33:26.284Z,22.52
2023-05-08T16:35:53.241Z,21.95
2023-05-08T16:38:22.689Z,23.45
2023-05-08T16:40:50.789Z,23.60
2023-05-08T16:43:17.800Z,23.15
2023-05-08T16:45:44.988Z,20.70
2023-05-08T16:48:12.139Z,21.67
2023-05-08T16:50:38.819Z,22.10
2023-05-08T16:53:06.528Z,21.88
2023-05-08T16:55:33.703Z,21.63
2023-05-08T16:58:03.381Z,23.48
2023-05-08T17:00:31.145Z,22.33
2023-05-08T17:02:59.485Z,23.15
2023-05-08T17:05:29.399Z,22.77
2023-05-08T17:07:56.203Z,23.63
2023-05-08T17:10:23.134Z,22.77
2023-05-08T17:12:55.816Z,23.17
2023-05-08T17:15:22.614Z,22.80
2023-05-08T17:17:50.964Z,22.67
2023-05-08T17:20:18.783Z,22.63
2023-05-08T17:22:45.891Z,21.60
2023-05-08T17:25:13.146Z,23.00
2023-05-08T17:27:40.040Z,21.42
2023-05-08T17:30:08.873Z,21.88
2023-05-08T17:32:35.612Z,21.85
2023-05-08T17:35:03.014Z,20.92
2023-05-08T17:37:30.304Z,22.30
2023-05-08T17:39:57.019Z,22.70
2023-05-08T17:42:24.100Z,22.42
2023-05-08T17:44:51.148Z,23.13
2023-05-08T17:47:20.562Z,22.17
2023-05-08T17:49:47.512Z,22.75
2023-05-08T17:52:17.120Z,22.05
2023-05-08T17:54:46.500Z,22.42
2023-05-08T17:57:13.230Z,20.75
2023-05-08T17:59:40.127Z,21.98
2023-05-08T18:02:08.721Z,22.42
2023-05-08T18:04:37.006Z,20.23
2023-05-08T18:07:06.909Z,20.98
2023-05-08T18:09:33.562Z,17.70
2023-05-08T18:12:02.778Z,19.73
2023-05-08T18:14:32.083Z,16.63
2023-05-08T18:16:59.471Z,16.90
2023-05-08T18:19:26.885Z,17.55
2023-05-08T18:21:53.819Z,15.43
2023-05-08T18:24:20.902Z,16.05
2023-05-08T18:26:48.250Z,17.13
2023-05-08T18:31:42.836Z,16.50
2023-05-08T18:34:09.610Z,16.85
2023-05-08T18:36:36.692Z,16.90
2023-05-08T18:39:05.475Z,15.77
2023-05-08T18:41:32.152Z,16.92
2023-05-08T18:44:03.425Z,16.17
2023-05-08T18:46:30.012Z,15.70
2023-05-08T18:48:56.636Z,15.15
2023-05-08T18:51:23.755Z,15.45
2023-05-08T18:53:50.967Z,17.33
2023-05-08T18:56:19.521Z,16.05
2023-05-08T18:58:47.804Z,16.00
2023-05-08T19:01:20.895Z,14.25
2023-05-08T19:03:48.546Z,16.58
2023-05-08T19:06:15.338Z,15.63
2023-05-08T19:08:42.177Z,15.32
2023-05-08T19:11:10.430Z,16.42
2023-05-08T19:13:39.986Z,16.90
2023-05-08T19:16:07.099Z,15.77
2023-05-08T19:18:33.744Z,15.93
2023-05-08T19:21:01.255Z,14.90
2023-05-08T19:23:30.989Z,15.75
2023-05-08T19:25:57.608Z,16.83
2023-05-08T19:28:25.374Z,16.02
2023-05-08T19:30:52.745Z,17.23
2023-05-08T19:33:22.799Z,16.00
2023-05-08T19:35:52.941Z,15.50
2023-05-08T19:38:20.850Z,16.17
2023-05-08T19:40:57.025Z,15.98
2023-05-08T19:43:27.828Z,16.55
2023-05-08T19:45:55.553Z,16.25
2023-05-08T19:48:22.561Z,17.55
2023-05-08T19:50:53.619Z,17.35
2023-05-08T19:53:21.612Z,17.83
2023-05-08T19:55:49.429Z,17.73
2023-05-08T19:58:17.589Z,17.90
2023-05-08T20:03:16.206Z,17.63
2023-05-08T20:05:42.896Z,18.10
2023-05-08T20:08:09.343Z,18.75
2023-05-08T20:10:36.090Z,19.48
2023-05-08T20:13:05.598Z,21.02
2023-05-08T20:15:32.127Z,20.77
2023-05-08T20:17:59.674Z,21.70
2023-05-08T20:20:27.284Z,24.05
2023-05-08T20:22:53.804Z,20.45
2023-05-08T20:25:20.623Z,22.63
2023-05-08T20:27:47.153Z,24.35
2023-05-08T20:30:14.202Z,23.25
2023-05-08T20:32:40.961Z,23.50
2023-05-08T20:35:08.046Z,25.52
2023-05-08T20:37:34.539Z,23.23
2023-05-08T20:40:02.084Z,25.42
2023-05-08T20:42:28.791Z,26.10
2023-05-08T20:44:55.366Z,25.40
2023-05-08T20:47:21.815Z,25.15
2023-05-08T20:49:48.321Z,26.30
2023-05-08T20:52:15.030Z,25.58
2023-05-08T20:54:44.406Z,26.48
2023-05-08T20:57:12.914Z,26.15
2023-05-08T20:59:39.651Z,24.88
2023-05-08T21:02:06.270Z,24.73
2023-05-08T21:04:32.801Z,26.48
2023-05-08T21:06:59.389Z,24.33
2023-05-08T21:09:26.045Z,24.48
2023-05-08T21:11:52.588Z,26.05
2023-05-08T21:14:19.517Z,24.40
2023-05-08T21:16:46.080Z,27.73
2023-05-08T21:19:17.252Z,25.05
2023-05-08T21:21:44.842Z,23.02
2023-05-08T21:24:11.593Z,22.98
2023-05-08T21:26:38.224Z,19.67
2023-05-08T21:29:05.129Z,16.60
2023-05-08T21:31:32.553Z,14.38
2023-05-08T21:33:59.113Z,13.95
2023-05-08T21:36:25.950Z,13.27
2023-05-08T21:38:52.701Z,13.23
2023-05-08T21:41:19.203Z,12.85
2023-05-08T21:43:45.966Z,13.57
2023-05-08T21:46:12.857Z,13.45
2023-05-08T21:48:39.344Z,12.48
2023-05-08T21:51:06.100Z,14.38
2023-05-08T21:53:32.737Z,13.85
2023-05-08T21:55:59.640Z,14.07
2023-05-08T21:58:26.637Z,13.93
2023-05-08T22:00:53.414Z,13.32
2023-05-08T22:03:20.016Z,13.32
2023-05-08T22:05:47.041Z,13.63
2023-05-08T22:08:13.796Z,13.43
2023-05-08T22:10:40.776Z,13.38
2023-05-08T22:13:07.789Z,13.68
2023-05-08T22:15:34.877Z,12.15
2023-05-08T22:18:02.966Z,14.55
2023-05-08T22:22:56.292Z,13.20
2023-05-08T22:25:23.150Z,12.93
2023-05-08T22:27:49.597Z,14.38
2023-05-08T22:30:16.299Z,14.25
2023-05-08T22:32:42.885Z,13.85
2023-05-08T22:35:09.595Z,13.38
2023-05-08T22:37:37.049Z,12.75
2023-05-08T22:40:04.126Z,14.65
2023-05-08T22:42:30.954Z,15.88
2023-05-08T22:44:57.802Z,16.33
2023-05-08T22:47:25.918Z,13.13
2023-05-08T22:49:52.925Z,13.93
2023-05-08T22:52:19.462Z,14.35
2023-05-08T22:54:46.449Z,15.10
2023-05-08T22:57:14.455Z,15.00
2023-05-08T23:02:07.489Z,12.90
2023-05-08T23:04:34.363Z,15.68
2023-05-08T23:07:02.895Z,14.93
2023-05-08T23:09:30.764Z,16.20
2023-05-08T23:11:57.327Z,15.60
2023-05-08T23:14:24.130Z,15.55
2023-05-08T23:16:50.828Z,16.85
2023-05-08T23:19:17.352Z,16.52
2023-05-08T23:21:43.832Z,15.48
2023-05-08T23:24:10.744Z,17.40
2023-05-08T23:26:37.604Z,18.77
2023-05-08T23:29:04.724Z,16.85
2023-05-08T23:31:31.320Z,16.38
2023-05-08T23:33:58.166Z,17.85
2023-05-08T23:36:24.725Z,17.95
2023-05-08T23:38:51.341Z,19.58
2023-05-08T23:41:18.068Z,20.45
2023-05-08T23:43:44.534Z,19.55
2023-05-08T23:46:11.591Z,19.75
2023-05-08T23:48:38.126Z,19.33
2023-05-08T23:51:04.905Z,18.88
2023-05-08T23:53:31.409Z,20.25
2023-05-08T23:55:58.041Z,24.00
2023-05-08T23:58:24.584Z,23.98
